Impacts METAR Board INFO
IDs:

KBOS - Boston/Logan Intl, MA, US

Updated at: 0503 UTC 16 Dec 2017
Potential Impact None Slight Moderate High
Time15/17Z 15/18Z 15/19Z 15/20Z 15/21Z 15/22Z 15/23Z 16/00Z 16/01Z 16/02Z 16/03Z 16/04Z 16/05Z
VIS10 10 10 10 10 10 10 10 10 10 6 10 10
CIG200 200 110 75 95 90 85 85 70 50 55 70 120
CoverOVCOVCOVCOVCOVCOVCOVCOVCOVCOVCOVCOVCOVC
FltCatVFRVFRVFRVFRVFRVFRVFRVFRVFRVFRVFRVFRVFR
WX---------------------SN----
WDir1902001602002101600200230220280290300
WSpd5 5 3 7 5 4 0 5 7 8 8 7 11
WGst-- -- -- -- -- -- -- -- -- -- -- -- --
Raw hourly METARs
KBOS 151654Z 19005KT 10SM FEW140 OVC200 M04/M12 A3005 RMK AO2 SLP174 T10391122
KBOS 151754Z 20005KT 10SM SCT120 OVC200 M03/M12 A3002 RMK AO2 SLP166 T10331117 11033 21078 56030
KBOS 151854Z 16003KT 10SM BKN110 OVC200 M03/M12 A2999 RMK AO2 SLP156 T10331117
KBOS 151954Z 20007KT 10SM BKN075 OVC200 M03/M11 A2998 RMK AO2 SLP152 T10331111
KBOS 152054Z 21005KT 10SM BKN095 OVC200 M03/M11 A2996 RMK AO2 SLP146 T10331106 56021
KBOS 152154Z 16004KT 10SM BKN090 OVC200 M03/M11 A2992 RMK AO2 SLP130 T10331106
KBOS 152254Z 00000KT 10SM OVC085 M03/M12 A2988 RMK AO2 SLP119 T10331117
KBOS 152354Z 20005KT 10SM OVC085 M03/M11 A2989 RMK AO2 SLP121 T10331111 11028 21033 55025
KBOS 160054Z 23007KT 10SM BKN070 OVC085 M03/M11 A2988 RMK AO2 SLP118 T10331111
KBOS 160154Z 22008KT 10SM BKN050 OVC075 M03/M11 A2986 RMK AO2 SLP110 T10331106
KBOS 160254Z 28008KT 6SM -SN OVC055 M04/M08 A2985 RMK AO2 SNB21 SLP107 P0000 60000 T10391083 56014
KBOS 160354Z 29007KT 10SM FEW025 FEW050 OVC070 M04/M08 A2984 RMK AO2 SNE17 SLP103 P0000 T10391078
KBOS 160454Z 30011KT 10SM FEW050 OVC120 M04/M08 A2980 RMK AO2 SLP092 T10391083 410281083